Aeroporto :
LOGIN :

Iscrizione | Disclaimer

   EN    FR    IT 

 










Sommario :    VFR   VFR Marginale   IFR   IFR Intensivo   IFR Molto Intensivo
Visibilità : 
Base nubi : 
>= 8 km
>= 3000ft
5 / 8 km
1000 / 3000 ft
1500m / 5 km
500 / 1000 ft
800 / 1500m
200 / 500 ft
< 800m
< 200 ft
Simboli :   Temporali  Nebbia  Neve Forte  Precipitazioni Forti  Vento > 20 kt
SIGMETs :   Varie  Temporali  Ghiacco  Turbolenza  Onda orograficha  Ceneri Vulcaniche







- Altitudine del aeroporto : 609 ft
- Codice IATA : BJZ


LEBZ - Badajoz

ULTIMO METAR :
  • 190943Z 23004KT 200V260 2000 BR BKN010 09/09 Q1027

METARs OBSOLETI :
  • 190906Z 26004KT 0900 R31/P2000 FG SCT002 BKN015 07/07 Q1027
  • 190849Z 26002KT 5000 BR SCT012 06/06 Q1027
  • 190800Z 20004KT 9999 FEW025 06/06 Q1026
  • 190744Z 19005KT 8000 FEW015 06/06 Q1026
  • 190738Z 19004KT 2500 BR SCT015 06/06 Q1026
  • 190728Z 16003KT 120V200 1000 R31/1600U BCFG BKN015 06/06 Q1026
  • 190700Z 07001KT 0300 R31/0350N FG VV001 05/05 Q1025

TAF AMD TAF LEBZ
Valido dal 19 a 09 ore il 20 a 06 ore UTC


190913Z 1909/2006 25004KT 9999 SCT010 TX14/1915Z TN05/2006Z
PROB40
TEMPO 1909/1911 3000 BR SCT003 BKN010
PROB30
TEMPO 1909/1911 0500 BCFG
Nessun NOTAM noto per questo aeroporto.



MetMap, La meteo Aeronautica in un colpo d'occhio ! - Copyright ORBIFLY Dicembre 2007 - Disclaimer

ORBIFLY MET'MAP TEAM :

Programmazione e sviluppo : Alexandra Zaïnal
Concezione e sviluppo : Baudouin d'Aumeries
Co-Programmazione e sviluppo : Marc-Olivier Méhu
Supporto tecnico e logistico : Manuel Goepfert
Aiuto per la traduzione : Arnaldo La Scala

Contatto : metmap@orbifly.com




FONTI E CREDITI :

   NOAA